Time;durP1;ratioP1;P1;durP2;ratioP2;P2;SDS_P1;SDS_P2;PMS_P1;PMS_P2;Temp;Humidity;BMP_temperature;BMP_pressure;BME280_temperature;BME280_humidity;BME280_pressure;Samples;Min_cycle;Max_cycle;Signal;HPM_P1;HPM_P2
2023/12/02 00:03:04;;;;;;;5.80;3.50;;;16.20;76.60;;;;;;10578662;27;20188;-62
2023/12/02 00:08:06;;;;;;;5.73;3.10;;;16.20;76.60;;;;;;10584608;27;20183;-61
2023/12/02 00:13:09;;;;;;;6.37;3.70;;;16.10;76.50;;;;;;10580518;27;20492;-62
2023/12/02 00:18:11;;;;;;;6.47;3.28;;;16.10;76.40;;;;;;10583380;27;20047;-62
2023/12/02 00:23:13;;;;;;;4.63;3.17;;;16.10;76.40;;;;;;10583265;27;20084;-62
2023/12/02 00:28:16;;;;;;;6.30;3.27;;;16.10;76.40;;;;;;10583810;27;20401;-61
2023/12/02 00:33:18;;;;;;;4.97;3.28;;;16.10;76.30;;;;;;10593258;27;20841;-61
2023/12/02 00:38:20;;;;;;;6.33;3.23;;;16.10;76.20;;;;;;10593757;27;20583;-61
2023/12/02 00:43:23;;;;;;;5.07;2.97;;;16.10;76.10;;;;;;10590986;27;20058;-63
2023/12/02 00:48:25;;;;;;;5.25;3.47;;;16.10;76.00;;;;;;10589967;27;20086;-62
2023/12/02 00:53:27;;;;;;;6.27;3.00;;;16.10;76.00;;;;;;10589680;27;20427;-62
2023/12/02 00:58:31;;;;;;;5.10;3.20;;;16.00;75.80;;;;;;10591588;27;20043;-63
2023/12/02 01:03:33;;;;;;;5.07;2.92;;;16.00;75.80;;;;;;10589867;27;20690;-61
2023/12/02 01:08:35;;;;;;;5.40;2.90;;;16.00;75.80;;;;;;10587651;27;20043;-62
2023/12/02 01:13:38;;;;;;;6.57;3.50;;;16.00;75.80;;;;;;10591923;27;20059;-62
2023/12/02 01:18:40;;;;;;;4.32;2.88;;;16.00;75.70;;;;;;10588685;27;20084;-62
2023/12/02 01:23:42;;;;;;;6.17;3.17;;;16.00;75.60;;;;;;10592954;27;20092;-61
2023/12/02 01:28:45;;;;;;;4.83;3.00;;;15.90;75.50;;;;;;10591499;27;20048;-62
2023/12/02 01:33:47;;;;;;;6.25;3.72;;;15.90;75.50;;;;;;10584482;27;20050;-63
2023/12/02 01:38:49;;;;;;;4.77;3.20;;;15.90;75.50;;;;;;10588600;27;20456;-64
2023/12/02 01:43:52;;;;;;;5.50;3.03;;;15.90;75.90;;;;;;10584223;27;20044;-62
2023/12/02 01:48:55;;;;;;;4.75;3.08;;;15.90;75.40;;;;;;10585657;27;20050;-62
2023/12/02 01:53:57;;;;;;;4.70;2.90;;;15.90;75.30;;;;;;10585344;27;20956;-63
2023/12/02 01:59:01;;;;;;;5.72;3.58;;;15.90;75.20;;;;;;10587050;27;20099;-62
2023/12/02 02:04:03;;;;;;;4.05;3.05;;;15.80;75.10;;;;;;10586281;27;20776;-63
2023/12/02 02:09:05;;;;;;;3.97;2.65;;;15.80;75.10;;;;;;10582361;27;20047;-62
2023/12/02 02:14:09;;;;;;;6.83;3.60;;;15.80;75.00;;;;;;10582756;27;20170;-62
2023/12/02 02:19:12;;;;;;;4.47;2.97;;;15.80;75.00;;;;;;10582813;27;20401;-63
2023/12/02 02:24:15;;;;;;;4.93;2.88;;;15.80;75.00;;;;;;10582954;27;20085;-63
2023/12/02 02:29:17;;;;;;;4.80;3.13;;;15.80;75.40;;;;;;10583454;27;20082;-62
2023/12/02 02:34:19;;;;;;;5.97;3.37;;;15.80;74.90;;;;;;10585596;27;20062;-61
2023/12/02 02:39:25;;;;;;;6.33;3.20;;;15.80;74.80;;;;;;10584975;27;20055;-62
2023/12/02 02:44:26;;;;;;;3.80;2.60;;;15.80;74.90;;;;;;10587248;27;20051;-61
2023/12/02 02:49:29;;;;;;;4.30;2.60;;;15.80;74.80;;;;;;10589314;27;20039;-63
2023/12/02 02:54:32;;;;;;;3.87;2.90;;;15.80;74.70;;;;;;10584118;27;20074;-62
2023/12/02 02:59:34;;;;;;;4.22;2.70;;;15.70;74.70;;;;;;10585601;27;20718;-61
2023/12/02 03:04:36;;;;;;;6.43;2.80;;;15.70;74.70;;;;;;10584887;27;20055;-62
2023/12/02 03:09:39;;;;;;;4.60;2.78;;;15.70;74.70;;;;;;10582934;27;20047;-62
2023/12/02 03:14:41;;;;;;;5.57;2.60;;;15.70;74.60;;;;;;10581465;27;20067;-62
2023/12/02 03:19:43;;;;;;;6.20;3.40;;;15.70;74.50;;;;;;10581418;27;20124;-63
2023/12/02 03:24:46;;;;;;;2.97;1.80;;;15.70;74.50;;;;;;10578628;27;20154;-62
2023/12/02 03:29:48;;;;;;;6.55;2.53;;;15.70;74.50;;;;;;10585302;27;20078;-62
2023/12/02 03:34:50;;;;;;;3.10;2.33;;;15.60;74.50;;;;;;10584413;27;20050;-62
2023/12/02 03:39:53;;;;;;;4.17;2.90;;;15.60;74.30;;;;;;10583431;27;20142;-62
2023/12/02 03:44:56;;;;;;;3.47;2.40;;;15.60;74.30;;;;;;10583639;27;20062;-62
2023/12/02 03:49:57;;;;;;;4.43;2.50;;;15.60;74.30;;;;;;10585835;27;20046;-63
2023/12/02 03:55:01;;;;;;;3.77;2.57;;;15.60;74.20;;;;;;10581074;27;20081;-61
2023/12/02 04:15:31;;;;;;;3.22;2.50;;;15.30;74.40;;;;;;10586788;27;20119;-63
2023/12/02 04:20:33;;;;;;;3.25;2.30;;;15.40;74.50;;;;;;10594534;27;20047;-62
2023/12/02 04:25:35;;;;;;;3.40;2.27;;;15.50;74.20;;;;;;10596790;27;20315;-65
2023/12/02 04:30:38;;;;;;;5.47;2.40;;;15.50;74.10;;;;;;10599307;27;20055;-62
2023/12/02 04:35:41;;;;;;;4.38;2.47;;;15.50;74.00;;;;;;10598145;27;20054;-62
2023/12/02 04:40:43;;;;;;;2.67;2.03;;;15.50;73.80;;;;;;10598462;27;20055;-63
2023/12/02 04:45:47;;;;;;;2.45;2.10;;;15.50;73.80;;;;;;10602181;27;20078;-63
2023/12/02 04:50:49;;;;;;;2.90;2.00;;;15.60;73.70;;;;;;10597923;27;20051;-62
2023/12/02 04:55:52;;;;;;;2.97;2.00;;;15.60;73.60;;;;;;10601999;27;20556;-63
2023/12/02 05:00:55;;;;;;;3.83;2.17;;;15.60;73.40;;;;;;10600033;27;20504;-62
2023/12/02 05:05:57;;;;;;;3.58;2.42;;;15.70;73.00;;;;;;10592075;27;20055;-63
2023/12/02 05:10:59;;;;;;;2.67;1.83;;;15.80;72.90;;;;;;10598585;27;20059;-63
2023/12/02 05:16:04;;;;;;;3.17;2.13;;;16.10;72.50;;;;;;10594051;27;20055;-62
2023/12/02 05:21:06;;;;;;;3.78;2.38;;;16.20;72.20;;;;;;10602868;27;20043;-63
2023/12/02 05:26:09;;;;;;;3.50;2.40;;;16.30;72.00;;;;;;10572066;27;20055;-64
2023/12/02 05:31:12;;;;;;;2.72;1.95;;;16.40;71.90;;;;;;10569493;27;20047;-61
2023/12/02 05:36:14;;;;;;;3.08;2.58;;;16.40;71.90;;;;;;10563555;27;20054;-63
2023/12/02 05:41:16;;;;;;;2.87;1.90;;;16.50;71.90;;;;;;10572152;27;20058;-62
2023/12/02 05:46:19;;;;;;;3.77;1.97;;;16.40;71.90;;;;;;10563916;27;20054;-63
2023/12/02 05:51:22;;;;;;;3.03;2.13;;;16.50;72.00;;;;;;10570874;27;20056;-62
2023/12/02 05:56:24;;;;;;;3.13;2.03;;;16.40;71.90;;;;;;10569923;27;20716;-62
2023/12/02 06:01:27;;;;;;;2.67;1.90;;;16.50;71.90;;;;;;10565389;27;20418;-63
2023/12/02 06:06:29;;;;;;;2.70;1.90;;;16.50;71.80;;;;;;10564778;27;20830;-62
2023/12/02 06:11:31;;;;;;;4.27;2.33;;;16.50;71.80;;;;;;10562960;27;20839;-63
2023/12/02 06:16:35;;;;;;;2.72;1.83;;;16.50;72.00;;;;;;10561886;27;20113;-62
2023/12/02 06:21:39;;;;;;;4.05;2.45;;;16.50;71.90;;;;;;10562979;27;20047;-62
2023/12/02 06:26:40;;;;;;;2.92;1.83;;;16.50;71.90;;;;;;10571048;27;20046;-63
2023/12/02 06:31:44;;;;;;;3.27;2.10;;;16.40;72.00;;;;;;10561475;27;20072;-62
2023/12/02 06:36:46;;;;;;;2.33;1.70;;;16.40;72.00;;;;;;10561106;27;20082;-64
2023/12/02 06:41:50;;;;;;;3.57;1.97;;;16.30;72.10;;;;;;10564807;27;20051;-61
2023/12/02 06:46:53;;;;;;;2.33;1.70;;;16.30;72.20;;;;;;10568079;27;20092;-62
2023/12/02 06:51:55;;;;;;;3.95;1.83;;;16.30;72.30;;;;;;10559812;27;20048;-62
2023/12/02 06:56:57;;;;;;;2.97;1.80;;;16.30;72.30;;;;;;10567210;27;20050;-63
2023/12/02 07:02:00;;;;;;;2.37;2.10;;;16.30;72.30;;;;;;10554338;27;20498;-62
2023/12/02 07:07:04;;;;;;;2.72;1.80;;;16.20;72.00;;;;;;10554931;27;20136;-64
2023/12/02 07:12:06;;;;;;;3.65;2.28;;;16.10;72.30;;;;;;10557809;27;20167;-63
2023/12/02 07:17:09;;;;;;;3.47;2.30;;;16.10;72.50;;;;;;10553620;27;20082;-62
2023/12/02 07:22:12;;;;;;;3.08;1.80;;;16.20;72.60;;;;;;10555748;27;20121;-63
2023/12/02 07:27:14;;;;;;;3.13;2.30;;;16.20;72.20;;;;;;10556259;27;20050;-63
2023/12/02 07:32:17;;;;;;;2.87;2.10;;;16.20;72.40;;;;;;10541920;27;20493;-61
2023/12/02 07:37:19;;;;;;;2.97;1.98;;;16.20;72.70;;;;;;10552239;27;20475;-62
2023/12/02 07:42:21;;;;;;;3.90;2.28;;;16.20;72.70;;;;;;10547215;27;20039;-63
2023/12/02 07:47:24;;;;;;;2.70;1.93;;;16.10;72.50;;;;;;10547714;27;20059;-63
2023/12/02 07:52:26;;;;;;;3.28;2.22;;;16.10;72.80;;;;;;10551493;27;20857;-63
2023/12/02 07:57:28;;;;;;;5.27;2.43;;;16.10;72.80;;;;;;10547129;27;20808;-63
2023/12/02 08:02:31;;;;;;;3.43;2.60;;;16.10;72.90;;;;;;10552262;27;20156;-62
2023/12/02 08:07:33;;;;;;;4.82;2.60;;;16.10;72.80;;;;;;10548729;27;20062;-63
2023/12/02 08:12:36;;;;;;;3.37;2.10;;;16.10;72.90;;;;;;10545529;28;20746;-63
2023/12/02 08:17:39;;;;;;;6.15;3.55;;;16.20;72.90;;;;;;10550642;27;20486;-63
2023/12/02 08:22:41;;;;;;;3.78;2.65;;;16.10;72.60;;;;;;10546893;27;20052;-62
2023/12/02 08:27:43;;;;;;;5.33;2.93;;;16.10;72.50;;;;;;10549730;28;20055;-63
2023/12/02 08:32:46;;;;;;;6.27;2.37;;;16.10;72.90;;;;;;10539361;28;20758;-62
2023/12/02 08:37:48;;;;;;;7.80;3.38;;;16.00;72.90;;;;;;10542644;28;20063;-63
2023/12/02 08:42:50;;;;;;;7.37;2.80;;;16.00;73.20;;;;;;10541022;27;20102;-66
2023/12/02 08:47:53;;;;;;;18.87;3.33;;;16.30;75.00;;;;;;10547885;28;20054;-57
2023/12/02 08:52:55;;;;;;;9.55;2.85;;;16.60;74.70;;;;;;10548376;28;20070;-52
2023/12/02 08:57:57;;;;;;;11.60;3.50;;;16.30;74.10;;;;;;10546769;27;20054;-55
2023/12/02 09:03:00;;;;;;;8.10;2.60;;;16.10;73.90;;;;;;10532568;27;20507;-53
2023/12/02 09:08:03;;;;;;;5.75;3.10;;;15.90;74.40;;;;;;10544654;27;20055;-52
2023/12/02 09:13:07;;;;;;;;;;;15.80;74.70;;;;;;10558866;27;20073;-57
2023/12/02 09:18:12;;;;;;;5.60;3.10;;;15.80;75.00;;;;;;10552635;27;19923;-55
2023/12/02 09:23:15;;;;;;;13.63;8.23;;;15.70;75.20;;;;;;10548038;27;20070;-58
2023/12/02 09:28:19;;;;;;;6.20;3.55;;;15.50;72.60;;;;;;10558233;27;20047;-56
2023/12/02 09:33:23;;;;;;;9.18;3.08;;;15.40;74.00;;;;;;10545462;27;22685;-57
2023/12/02 09:38:25;;;;;;;7.25;3.75;;;15.50;74.80;;;;;;10548316;27;20055;-57
2023/12/02 09:43:32;;;;;;;7.22;3.35;;;15.50;74.90;;;;;;10551085;27;20079;-55
2023/12/02 09:48:53;;;;;;;8.20;3.78;;;15.50;75.10;;;;;;10549999;27;20598;-57
2023/12/02 09:54:05;;;;;;;9.70;3.60;;;15.60;75.30;;;;;;10546061;27;20068;-57
2023/12/02 09:59:15;;;;;;;6.45;3.55;;;15.50;75.50;;;;;;10547367;27;20051;-57
2023/12/02 10:04:31;;;;;;;8.25;3.40;;;15.60;75.70;;;;;;10554775;27;20130;-56
2023/12/02 10:09:44;;;;;;;9.10;4.00;;;15.60;75.60;;;;;;10552475;27;20054;-56
2023/12/02 10:14:54;;;;;;;7.05;3.75;;;15.60;76.00;;;;;;10551970;27;20048;-52
2023/12/02 10:20:05;;;;;;;8.48;4.07;;;15.60;76.10;;;;;;10545626;27;20120;-57
2023/12/02 10:25:14;;;;;;;11.55;3.90;;;15.50;75.70;;;;;;10556035;27;20047;-54
2023/12/02 10:30:17;;;;;;;24.95;12.35;;;15.40;75.40;;;;;;10553193;27;20502;-55
2023/12/02 10:35:25;;;;;;;22.58;11.63;;;14.90;74.00;;;;;;10555050;27;20054;-58
2023/12/02 10:40:29;;;;;;;8.93;5.20;;;14.90;74.10;;;;;;10555627;27;20058;-53
2023/12/02 10:45:32;;;;;;;7.18;4.47;;;14.90;75.30;;;;;;10555119;27;20057;-57
2023/12/02 10:50:36;;;;;;;11.55;5.38;;;15.10;74.70;;;;;;10554847;27;20210;-55
2023/12/02 10:55:40;;;;;;;12.25;5.10;;;15.10;74.70;;;;;;10552296;27;20055;-54
2023/12/02 11:00:45;;;;;;;20.83;6.57;;;15.10;74.90;;;;;;10551438;27;20151;-55
2023/12/02 11:06:01;;;;;;;19.98;7.43;;;15.20;75.00;;;;;;10554259;27;20067;-53
2023/12/02 11:11:07;;;;;;;22.30;9.20;;;15.30;77.40;;;;;;10555054;27;20048;-60
2023/12/02 11:16:20;;;;;;;21.30;8.82;;;15.70;77.50;;;;;;10555354;27;20047;-61
2023/12/02 11:21:34;;;;;;;34.03;17.55;;;15.80;78.60;;;;;;10557328;27;20055;-57
2023/12/02 11:26:46;;;;;;;31.00;8.15;;;15.60;76.60;;;;;;10549793;27;20046;-60
2023/12/02 11:32:14;;;;;;;26.33;7.95;;;15.40;77.30;;;;;;10549744;27;20425;-59
2023/12/02 11:37:34;;;;;;;18.70;7.28;;;15.60;80.50;;;;;;10553639;27;20039;-59
2023/12/02 11:42:46;;;;;;;23.38;10.55;;;15.80;78.70;;;;;;10552692;27;20055;-58
2023/12/02 11:48:11;;;;;;;17.27;6.63;;;15.80;78.70;;;;;;10554470;27;20044;-59
2023/12/02 11:53:27;;;;;;;15.85;6.63;;;16.00;79.30;;;;;;10551969;27;20977;-59
2023/12/02 11:58:37;;;;;;;21.60;7.75;;;16.20;79.00;;;;;;10548061;27;20067;-59
2023/12/02 12:03:47;;;;;;;18.63;6.93;;;16.30;78.30;;;;;;10544834;27;20048;-58
2023/12/02 12:09:03;;;;;;;14.38;6.47;;;16.20;78.30;;;;;;10554111;27;20054;-56
2023/12/02 12:14:07;;;;;;;15.73;5.90;;;16.20;78.20;;;;;;10549717;28;20150;-59
2023/12/02 12:19:09;;;;;;;13.07;6.28;;;16.30;77.90;;;;;;10557551;28;20043;-60
2023/12/02 12:24:12;;;;;;;14.87;5.00;;;16.20;77.70;;;;;;10550303;28;20473;-60
2023/12/02 12:29:15;;;;;;;10.70;4.85;;;16.10;77.40;;;;;;10556971;28;20039;-60
2023/12/02 12:34:18;;;;;;;9.48;5.20;;;16.10;77.40;;;;;;10554379;27;20147;-58
2023/12/02 12:39:22;;;;;;;14.93;5.05;;;15.90;77.60;;;;;;10561082;27;20103;-56
2023/12/02 12:44:25;;;;;;;11.60;4.93;;;15.90;77.50;;;;;;10564160;27;20454;-57
2023/12/02 12:49:30;;;;;;;11.32;4.78;;;15.90;77.50;;;;;;10559380;27;20055;-56
2023/12/02 12:54:37;;;;;;;13.07;4.57;;;15.80;77.50;;;;;;10555488;27;20051;-60
2023/12/02 12:59:39;;;;;;;8.77;4.22;;;15.80;77.70;;;;;;10562751;27;20486;-59
2023/12/02 13:04:48;;;;;;;7.93;3.75;;;15.80;77.60;;;;;;10559436;27;20047;-59
2023/12/02 13:09:54;;;;;;;10.85;4.22;;;15.70;78.10;;;;;;10559263;27;20035;-59
2023/12/02 13:15:03;;;;;;;10.30;5.00;;;15.80;77.60;;;;;;10552555;27;20055;-59
2023/12/02 13:20:07;;;;;;;12.32;6.53;;;15.80;77.20;;;;;;10562852;27;20166;-61
2023/12/02 13:25:14;;;;;;;18.30;9.98;;;15.80;77.30;;;;;;10556577;27;20039;-57
2023/12/02 13:30:17;;;;;;;17.00;8.35;;;15.40;76.70;;;;;;10561314;27;20055;-58
2023/12/02 13:35:27;;;;;;;19.20;9.77;;;15.40;77.20;;;;;;10555275;27;20048;-59
2023/12/02 13:40:38;;;;;;;7.28;4.55;;;15.20;76.70;;;;;;10561791;27;20067;-59
2023/12/02 13:45:41;;;;;;;8.85;4.65;;;15.30;77.80;;;;;;10556287;27;20477;-60
2023/12/02 13:50:51;;;;;;;6.88;3.92;;;15.30;77.80;;;;;;10557001;27;20048;-57
2023/12/02 13:56:13;;;;;;;12.55;7.93;;;15.30;77.60;;;;;;10558081;27;20043;-61
2023/12/02 14:01:22;;;;;;;12.20;6.97;;;15.20;75.80;;;;;;10554415;27;20048;-61
2023/12/02 14:06:29;;;;;;;9.07;4.43;;;15.30;76.70;;;;;;10554722;27;20039;-61
2023/12/02 14:11:45;;;;;;;12.00;6.13;;;15.40;78.20;;;;;;10550519;27;20074;-60
2023/12/02 14:16:55;;;;;;;18.42;9.15;;;15.50;77.90;;;;;;10544819;27;20074;-59
2023/12/02 14:22:23;;;;;;;7.60;4.22;;;15.40;76.00;;;;;;10557395;27;20574;-60
2023/12/02 14:27:40;;;;;;;9.23;5.18;;;15.40;77.80;;;;;;10547916;27;20143;-61
2023/12/02 14:33:09;;;;;;;13.40;6.78;;;15.20;77.00;;;;;;10552472;27;20051;-60
2023/12/02 14:38:31;;;;;;;6.28;3.50;;;15.10;78.40;;;;;;10551528;27;20051;-61
2023/12/02 14:43:43;;;;;;;7.40;5.10;;;15.40;78.40;;;;;;10553834;27;20187;-61
2023/12/02 14:48:45;;;;;;;10.13;4.67;;;15.50;78.10;;;;;;10551745;27;20624;-58
2023/12/02 14:53:47;;;;;;;11.27;5.53;;;15.50;77.50;;;;;;10561010;27;20063;-61
2023/12/02 14:58:51;;;;;;;16.50;7.32;;;15.50;77.50;;;;;;10555877;27;21456;-58
2023/12/02 15:03:53;;;;;;;20.45;10.10;;;15.50;77.90;;;;;;10563640;27;20714;-59
2023/12/02 15:08:56;;;;;;;33.35;9.32;;;15.30;77.70;;;;;;10561517;27;20047;-60
2023/12/02 15:13:59;;;;;;;34.30;9.55;;;15.40;78.60;;;;;;10554950;27;20088;-60
2023/12/02 15:19:09;;;;;;;22.17;9.77;;;15.20;77.90;;;;;;10557565;27;20051;-62
2023/12/02 15:24:11;;;;;;;23.25;8.75;;;14.90;78.70;;;;;;10554385;27;20795;-62
2023/12/02 15:29:15;;;;;;;14.65;8.45;;;15.00;78.50;;;;;;10553833;27;20080;-62
2023/12/02 15:34:17;;;;;;;15.07;8.60;;;14.90;77.90;;;;;;10554374;27;20043;-62
2023/12/02 15:39:19;;;;;;;13.75;6.65;;;14.70;77.50;;;;;;10548569;27;20791;-61
2023/12/02 15:44:23;;;;;;;16.98;5.72;;;14.70;78.30;;;;;;10552431;27;20055;-61
2023/12/02 15:49:25;;;;;;;15.48;5.38;;;14.60;79.90;;;;;;10553868;27;20125;-61
2023/12/02 15:54:31;;;;;;;7.95;3.88;;;15.00;79.20;;;;;;10557105;27;20051;-62
2023/12/02 15:59:35;;;;;;;12.05;4.78;;;15.10;78.50;;;;;;10556722;27;20054;-62
2023/12/02 16:04:37;;;;;;;8.48;4.32;;;15.10;78.40;;;;;;10552928;27;20051;-62
2023/12/02 16:09:47;;;;;;;5.40;2.88;;;15.20;78.30;;;;;;10557872;27;20055;-61
2023/12/02 16:14:50;;;;;;;10.75;3.88;;;15.10;76.50;;;;;;10554297;28;20872;-62
2023/12/02 16:19:54;;;;;;;8.27;3.63;;;15.10;78.50;;;;;;10557431;27;20039;-60
2023/12/02 16:24:57;;;;;;;12.80;3.58;;;15.00;78.00;;;;;;10554598;28;20140;-61
2023/12/02 16:30:00;;;;;;;8.45;4.15;;;15.30;78.50;;;;;;10553864;27;20232;-62
2023/12/02 16:35:02;;;;;;;8.75;3.35;;;15.40;78.30;;;;;;10546068;27;20048;-62
2023/12/02 16:40:05;;;;;;;6.77;2.50;;;15.40;78.30;;;;;;10551563;27;20055;-61
2023/12/02 16:45:14;;;;;;;;;;;15.40;78.40;;;;;;10556210;27;20392;-62
2023/12/02 16:50:19;;;;;;;4.40;2.75;;;15.50;78.80;;;;;;10547009;28;19920;-62
2023/12/02 16:55:27;;;;;;;6.68;3.17;;;15.30;78.20;;;;;;10551271;28;20220;-61
2023/12/02 17:00:35;;;;;;;7.20;3.47;;;15.40;78.30;;;;;;10551765;28;20047;-61
2023/12/02 17:06:05;;;;;;;6.30;3.60;;;15.40;75.60;;;;;;10549286;28;20112;-67
2023/12/02 17:11:09;;;;;;;8.75;4.88;;;15.10;78.40;;;;;;10548169;28;22532;-61
2023/12/02 17:16:49;;;;;;;7.57;3.88;;;15.10;77.40;;;;;;10552459;27;20043;-61
2023/12/02 17:21:54;;;;;;;11.88;6.43;;;15.20;78.30;;;;;;10561123;27;20116;-60
2023/12/02 17:26:57;;;;;;;11.30;6.70;;;15.00;77.00;;;;;;10567999;27;20055;-62
2023/12/02 17:32:00;;;;;;;5.88;2.97;;;14.50;76.60;;;;;;10550160;27;20772;-62
2023/12/02 17:37:03;;;;;;;2.70;1.73;;;14.10;77.80;;;;;;10558795;27;20418;-62
2023/12/02 17:42:07;;;;;;;2.85;2.33;;;13.90;76.60;;;;;;10560012;27;20871;-62
2023/12/02 17:47:08;;;;;;;1.75;1.30;;;13.60;77.40;;;;;;10557459;27;20063;-63
2023/12/02 17:52:12;;;;;;;9.10;4.90;;;14.20;77.60;;;;;;10564223;27;20131;-62
2023/12/02 17:57:13;;;;;;;;;;;14.30;79.70;;;;;;10558660;27;20058;-62
2023/12/02 18:02:15;;;;;;;8.95;3.83;;;14.50;78.70;;;;;;10555950;27;19966;-62
2023/12/02 18:07:19;;;;;;;10.23;4.40;;;14.90;77.60;;;;;;10560678;27;20831;-62
2023/12/02 18:12:20;;;;;;;4.82;2.88;;;15.10;77.40;;;;;;10551424;27;20141;-64
2023/12/02 18:17:22;;;;;;;14.73;5.63;;;14.70;77.70;;;;;;10552845;27;20879;-61
2023/12/02 18:22:26;;;;;;;10.88;5.82;;;14.80;78.50;;;;;;10556445;27;20047;-63
2023/12/02 18:27:28;;;;;;;14.23;7.18;;;15.00;77.70;;;;;;10553844;27;20054;-62
2023/12/02 18:32:30;;;;;;;13.20;6.55;;;15.10;77.30;;;;;;10542146;27;20055;-61
2023/12/02 18:37:33;;;;;;;17.40;7.30;;;15.10;77.10;;;;;;10559949;27;20099;-58
2023/12/02 18:42:35;;;;;;;14.25;6.03;;;15.10;77.00;;;;;;10563337;27;20048;-59
2023/12/02 18:47:37;;;;;;;13.67;7.03;;;15.10;76.90;;;;;;10561475;27;20058;-62
2023/12/02 18:52:41;;;;;;;15.25;6.43;;;15.20;76.90;;;;;;10563229;27;20874;-60
2023/12/02 18:57:43;;;;;;;13.88;6.90;;;15.20;76.90;;;;;;10560818;27;20166;-60
2023/12/02 19:02:45;;;;;;;10.80;5.88;;;15.10;76.80;;;;;;10558569;27;20490;-61
2023/12/02 19:07:48;;;;;;;14.50;5.80;;;15.20;76.90;;;;;;10567649;27;20134;-59
2023/12/02 19:12:50;;;;;;;12.55;5.20;;;15.20;76.90;;;;;;10557173;27;20077;-58
2023/12/02 19:17:52;;;;;;;8.63;5.57;;;15.20;76.90;;;;;;10559474;27;20047;-60
2023/12/02 19:22:55;;;;;;;9.70;5.50;;;15.10;77.00;;;;;;10556236;27;21243;-61
2023/12/02 19:27:57;;;;;;;9.27;5.00;;;15.10;77.00;;;;;;10564169;27;20047;-62
2023/12/02 19:32:59;;;;;;;6.75;4.15;;;15.10;77.10;;;;;;10567851;27;20051;-61
2023/12/02 19:38:03;;;;;;;10.77;3.33;;;15.20;77.60;;;;;;10559599;27;20061;-60
2023/12/02 19:43:04;;;;;;;6.80;2.85;;;15.30;77.90;;;;;;10554580;27;20772;-58
2023/12/02 19:48:06;;;;;;;3.87;2.70;;;15.40;78.20;;;;;;10562367;27;20501;-61
2023/12/02 19:53:10;;;;;;;7.70;3.03;;;15.40;78.40;;;;;;10551863;27;20060;-62
2023/12/02 19:58:12;;;;;;;3.58;2.63;;;15.50;78.60;;;;;;10553842;27;20048;-58
2023/12/02 20:03:14;;;;;;;;;;;15.50;78.70;;;;;;10548239;27;20543;-59
2023/12/02 20:08:18;;;;;;;3.13;2.15;;;15.50;78.80;;;;;;10545122;27;20393;-63
2023/12/02 20:13:24;;;;;;;4.50;2.38;;;15.50;78.90;;;;;;10540847;27;20546;-62
2023/12/02 20:18:26;;;;;;;4.30;2.03;;;15.60;79.10;;;;;;10549991;28;20835;-60
2023/12/02 20:23:29;;;;;;;7.83;5.50;;;15.60;79.20;;;;;;10555297;27;20055;-62
2023/12/02 20:28:32;;;;;;;3.50;2.40;;;15.50;78.40;;;;;;10554707;27;20094;-60
2023/12/02 20:33:34;;;;;;;5.38;2.50;;;15.50;79.40;;;;;;10550420;27;20044;-61
2023/12/02 20:38:37;;;;;;;4.47;2.17;;;15.60;79.20;;;;;;10547817;28;20714;-61
2023/12/02 20:43:39;;;;;;;8.30;2.03;;;15.70;79.30;;;;;;10546506;28;20107;-61
2023/12/02 20:48:43;;;;;;;3.83;2.00;;;15.70;79.30;;;;;;10556449;28;20039;-62
2023/12/02 20:53:47;;;;;;;9.48;2.20;;;15.70;79.40;;;;;;10549625;27;20568;-61
2023/12/02 20:58:48;;;;;;;9.73;2.05;;;15.70;79.30;;;;;;10565814;27;20054;-62
2023/12/02 21:03:50;;;;;;;5.73;2.37;;;15.80;79.50;;;;;;10558102;27;20046;-61
2023/12/02 21:08:54;;;;;;;8.47;1.93;;;15.80;79.50;;;;;;10571662;27;20827;-62
2023/12/02 21:13:56;;;;;;;4.85;1.95;;;15.80;79.60;;;;;;10568623;27;20804;-61
2023/12/02 21:18:58;;;;;;;3.53;2.00;;;15.80;79.60;;;;;;10563580;27;20047;-61
2023/12/02 21:24:01;;;;;;;3.33;2.20;;;15.80;79.60;;;;;;10570970;27;20059;-60
2023/12/02 21:29:03;;;;;;;2.97;1.98;;;15.80;79.70;;;;;;10570050;27;20047;-62
2023/12/02 21:34:09;;;;;;;8.50;1.77;;;15.90;79.70;;;;;;10554730;27;20047;-62
2023/12/02 21:39:19;;;;;;;3.50;1.77;;;15.90;79.80;;;;;;10567647;27;20742;-62
2023/12/02 21:44:21;;;;;;;11.05;2.38;;;15.90;79.70;;;;;;10575161;27;20047;-61
2023/12/02 21:49:26;;;;;;;6.60;1.90;;;15.90;79.80;;;;;;10567171;27;20052;-62
2023/12/02 21:54:29;;;;;;;4.32;1.73;;;15.90;79.80;;;;;;10566777;27;20644;-61
2023/12/02 21:59:33;;;;;;;5.50;2.30;;;15.90;79.80;;;;;;10569665;27;23032;-61
2023/12/02 22:04:40;;;;;;;10.48;6.70;;;15.90;79.70;;;;;;10566722;27;20092;-61
2023/12/02 22:09:43;;;;;;;12.15;3.08;;;15.60;78.70;;;;;;10563598;27;20513;-61
2023/12/02 22:14:46;;;;;;;13.82;8.70;;;15.60;79.90;;;;;;10570876;27;20055;-61
2023/12/02 22:19:48;;;;;;;;;;;15.70;78.40;;;;;;10577619;27;20078;-62
2023/12/02 22:24:51;;;;;;;5.72;2.83;;;15.80;79.60;;;;;;10571361;27;19930;-61
2023/12/02 22:29:53;;;;;;;11.00;7.50;;;15.80;79.30;;;;;;10574636;27;20059;-61
2023/12/02 22:34:55;;;;;;;11.77;7.82;;;15.50;78.50;;;;;;10563216;27;20487;-62
2023/12/02 22:39:59;;;;;;;6.45;3.67;;;15.40;79.10;;;;;;10565834;27;20274;-61
2023/12/02 22:45:01;;;;;;;5.05;2.75;;;15.40;79.40;;;;;;10547987;27;20071;-61
2023/12/02 22:50:03;;;;;;;7.27;2.53;;;15.60;79.40;;;;;;10567056;27;20055;-60
2023/12/02 22:55:08;;;;;;;2.80;2.07;;;15.70;79.10;;;;;;10567003;27;20055;-60
2023/12/02 23:00:30;;;;;;;4.50;2.30;;;15.80;79.20;;;;;;10564094;27;20055;-61
2023/12/02 23:05:33;;;;;;;4.88;1.85;;;15.80;79.30;;;;;;10558548;27;20790;-61
2023/12/02 23:10:39;;;;;;;2.78;1.88;;;15.80;79.20;;;;;;10563343;27;20592;-60
2023/12/02 23:15:41;;;;;;;2.67;1.77;;;15.80;79.80;;;;;;10555926;27;20074;-62
2023/12/02 23:20:48;;;;;;;6.17;1.93;;;15.80;79.20;;;;;;10560370;27;20079;-61
2023/12/02 23:25:51;;;;;;;3.38;2.25;;;15.80;79.20;;;;;;10565308;27;20046;-60
2023/12/02 23:30:53;;;;;;;4.05;2.63;;;15.80;79.10;;;;;;10563625;27;20059;-62
2023/12/02 23:35:56;;;;;;;3.53;2.50;;;15.80;79.10;;;;;;10563615;27;20047;-60
2023/12/02 23:40:59;;;;;;;3.95;2.30;;;15.80;79.10;;;;;;10565528;27;20051;-60
2023/12/02 23:46:01;;;;;;;4.78;2.67;;;15.80;79.10;;;;;;10564013;27;20049;-61
2023/12/02 23:51:04;;;;;;;3.20;2.13;;;15.80;79.10;;;;;;10566124;27;20051;-61
2023/12/02 23:56:08;;;;;;;3.13;2.20;;;15.80;79.00;;;;;;10568544;27;20738;-63
